HAZ3409 ZGGG-ZSQZ
Flight info
| Callsign | HAZ3409 |
|---|---|
| Flight time | 1h 4m |
| Altitude | 20700 |
| Route | LMN G471 XEBUL H25 VETIB W155 TEBON |
| Aircraft | B738/M-SDE1E2E3FGHIJ2J3J4J5M1RWXY/LB1D1 |
Departure
| Time | 2026-04-18 07:08 |
|---|---|
| Airport | Guangzhou Baiyun International Airport (ZGGG) |
Arrival
| Time | 2026-04-18 08:13 |
|---|---|
| Airport | Quanzhou Jinjiang International Airport (ZSQZ) |
| Time | Latitude | Longitude | Altitude | Speed | Heading |
|---|---|---|---|---|---|
| 2026-04-18 06:44 | 23.40083 | 113.30606 | 58 ft | 0 kts | 358° |
| 2026-04-18 06:55 | 23.40067 | 113.30607 | 58 ft | 2 kts | 358° |
| 2026-04-18 06:55 | 23.40051 | 113.30608 | 58 ft | 2 kts | 358° |
| 2026-04-18 06:55 | 23.40035 | 113.30608 | 58 ft | 2 kts | 1° |
| 2026-04-18 06:56 | 23.40019 | 113.30604 | 58 ft | 2 kts | 35° |
| 2026-04-18 06:56 | 23.40012 | 113.30594 | 58 ft | 1 kts | 83° |
| 2026-04-18 06:56 | 23.40012 | 113.30588 | 58 ft | 0 kts | 88° |
| 2026-04-18 07:00 | 23.40001 | 113.30604 | 58 ft | 4 kts | 142° |
| 2026-04-18 07:00 | 23.39979 | 113.30626 | 58 ft | 4 kts | 128° |
| 2026-04-18 07:00 | 23.39967 | 113.30655 | 58 ft | 4 kts | 108° |
| 2026-04-18 07:00 | 23.39957 | 113.30694 | 58 ft | 7 kts | 102° |
| 2026-04-18 07:01 | 23.39923 | 113.30756 | 58 ft | 12 kts | 163° |
| 2026-04-18 07:01 | 23.39833 | 113.30746 | 58 ft | 14 kts | 195° |
| 2026-04-18 07:01 | 23.39770 | 113.30730 | 58 ft | 6 kts | 187° |
| 2026-04-18 07:01 | 23.39746 | 113.30765 | 58 ft | 8 kts | 107° |
| 2026-04-18 07:02 | 23.39697 | 113.30808 | 58 ft | 14 kts | 174° |
| 2026-04-18 07:02 | 23.39578 | 113.30778 | 58 ft | 21 kts | 194° |
| 2026-04-18 07:02 | 23.39439 | 113.30740 | 58 ft | 20 kts | 194° |
| 2026-04-18 07:02 | 23.39314 | 113.30706 | 58 ft | 17 kts | 194° |
| 2026-04-18 07:03 | 23.39187 | 113.30671 | 58 ft | 20 kts | 192° |
| 2026-04-18 07:03 | 23.39053 | 113.30635 | 58 ft | 21 kts | 194° |
| 2026-04-18 07:03 | 23.38901 | 113.30594 | 58 ft | 21 kts | 192° |
| 2026-04-18 07:03 | 23.38763 | 113.30557 | 58 ft | 17 kts | 192° |
| 2026-04-18 07:04 | 23.38656 | 113.30528 | 58 ft | 16 kts | 193° |
| 2026-04-18 07:04 | 23.38542 | 113.30494 | 58 ft | 16 kts | 195° |
| 2026-04-18 07:04 | 23.38426 | 113.30465 | 58 ft | 19 kts | 194° |
| 2026-04-18 07:04 | 23.38292 | 113.30429 | 58 ft | 21 kts | 194° |
| 2026-04-18 07:05 | 23.38142 | 113.30388 | 58 ft | 23 kts | 194° |
| 2026-04-18 07:05 | 23.37987 | 113.30345 | 58 ft | 23 kts | 194° |
| 2026-04-18 07:05 | 23.37824 | 113.30301 | 58 ft | 23 kts | 192° |
| 2026-04-18 07:05 | 23.37666 | 113.30265 | 58 ft | 19 kts | 168° |
| 2026-04-18 07:06 | 23.37616 | 113.30370 | 58 ft | 16 kts | 106° |
| 2026-04-18 07:06 | 23.37604 | 113.30420 | 58 ft | 2 kts | 104° |
| 2026-04-18 07:06 | 23.37600 | 113.30437 | 58 ft | 2 kts | 104° |
| 2026-04-18 07:06 | 23.37596 | 113.30456 | 58 ft | 5 kts | 104° |
| 2026-04-18 07:07 | 23.37596 | 113.30531 | 58 ft | 16 kts | 56° |
| 2026-04-18 07:07 | 23.37654 | 113.30557 | 58 ft | 2 kts | 15° |
| 2026-04-18 07:07 | 23.37666 | 113.30561 | 58 ft | 8 kts | 15° |
| 2026-04-18 07:07 | 23.37930 | 113.30632 | 58 ft | 72 kts | 13° |
| 2026-04-18 07:08 | 23.38620 | 113.30818 | 58 ft | 131 kts | 14° |
| 2026-04-18 07:08 | 23.39662 | 113.31105 | 168 ft | 172 kts | 14° |
| 2026-04-18 07:08 | 23.40897 | 113.31438 | 517 ft | 190 kts | 13° |
| 2026-04-18 07:08 | 23.42231 | 113.31774 | 959 ft | 202 kts | 12° |
| 2026-04-18 07:09 | 23.43667 | 113.32135 | 1342 ft | 223 kts | 14° |
| 2026-04-18 07:09 | 23.45163 | 113.32603 | 1865 ft | 226 kts | 17° |
| 2026-04-18 07:09 | 23.46648 | 113.33095 | 2394 ft | 221 kts | 16° |
| 2026-04-18 07:09 | 23.48119 | 113.33560 | 2966 ft | 221 kts | 15° |
| 2026-04-18 07:10 | 23.49606 | 113.34014 | 3538 ft | 226 kts | 15° |
| 2026-04-18 07:10 | 23.51180 | 113.34488 | 4067 ft | 242 kts | 14° |
| 2026-04-18 07:10 | 23.52822 | 113.34978 | 4812 ft | 247 kts | 14° |
| 2026-04-18 07:10 | 23.54489 | 113.35476 | 5618 ft | 250 kts | 14° |
| 2026-04-18 07:11 | 23.56185 | 113.35963 | 6391 ft | 254 kts | 11° |
| 2026-04-18 07:11 | 23.57933 | 113.36312 | 7134 ft | 257 kts | 7° |
| 2026-04-18 07:11 | 23.59713 | 113.36628 | 7884 ft | 261 kts | 7° |
| 2026-04-18 07:11 | 23.61504 | 113.37030 | 8600 ft | 266 kts | 17° |
| 2026-04-18 07:12 | 23.63107 | 113.38072 | 9285 ft | 274 kts | 41° |
| 2026-04-18 07:12 | 23.64244 | 113.39793 | 9784 ft | 291 kts | 63° |
| 2026-04-18 07:12 | 23.64753 | 113.41981 | 10265 ft | 305 kts | 83° |
| 2026-04-18 07:12 | 23.64887 | 113.44324 | 10828 ft | 315 kts | 86° |
| 2026-04-18 07:13 | 23.65106 | 113.46761 | 11159 ft | 332 kts | 80° |
| 2026-04-18 07:13 | 23.65566 | 113.49299 | 11426 ft | 350 kts | 76° |
| 2026-04-18 07:13 | 23.66157 | 113.51941 | 11684 ft | 367 kts | 75° |
| 2026-04-18 07:13 | 23.66760 | 113.54720 | 11902 ft | 384 kts | 76° |
| 2026-04-18 07:14 | 23.67353 | 113.57619 | 12147 ft | 399 kts | 78° |
| 2026-04-18 07:14 | 23.67728 | 113.60641 | 12602 ft | 406 kts | 84° |
| 2026-04-18 07:14 | 23.67819 | 113.63742 | 13154 ft | 411 kts | 90° |
| 2026-04-18 07:14 | 23.67695 | 113.66865 | 13728 ft | 414 kts | 92° |
| 2026-04-18 07:15 | 23.67504 | 113.70009 | 14259 ft | 417 kts | 92° |
| 2026-04-18 07:15 | 23.67332 | 113.73187 | 14775 ft | 421 kts | 92° |
| 2026-04-18 07:15 | 23.67173 | 113.76391 | 15294 ft | 425 kts | 91° |
| 2026-04-18 07:15 | 23.67026 | 113.79618 | 15822 ft | 427 kts | 91° |
| 2026-04-18 07:16 | 23.66883 | 113.82863 | 16310 ft | 431 kts | 91° |
| 2026-04-18 07:16 | 23.66741 | 113.86134 | 16812 ft | 433 kts | 91° |
| 2026-04-18 07:16 | 23.66598 | 113.89438 | 17276 ft | 437 kts | 91° |
| 2026-04-18 07:16 | 23.66456 | 113.92755 | 17751 ft | 440 kts | 91° |
| 2026-04-18 07:17 | 23.66312 | 113.96091 | 18195 ft | 443 kts | 91° |
| 2026-04-18 07:17 | 23.66185 | 113.99463 | 18632 ft | 446 kts | 90° |
| 2026-04-18 07:17 | 23.66063 | 114.02850 | 19049 ft | 449 kts | 91° |
| 2026-04-18 07:17 | 23.65925 | 114.06262 | 19456 ft | 452 kts | 91° |
| 2026-04-18 07:18 | 23.65779 | 114.09700 | 19877 ft | 454 kts | 91° |
| 2026-04-18 07:18 | 23.65628 | 114.13145 | 20287 ft | 457 kts | 91° |
| 2026-04-18 07:18 | 23.65474 | 114.16626 | 20543 ft | 461 kts | 91° |
| 2026-04-18 07:18 | 23.65317 | 114.20130 | 20591 ft | 467 kts | 91° |
| 2026-04-18 07:19 | 23.65159 | 114.23654 | 20599 ft | 474 kts | 91° |
| 2026-04-18 07:19 | 23.65138 | 114.27311 | 20594 ft | 478 kts | 83° |
| 2026-04-18 07:19 | 23.65832 | 114.30793 | 20600 ft | 475 kts | 68° |
| 2026-04-18 07:19 | 23.67304 | 114.33995 | 20601 ft | 470 kts | 53° |
| 2026-04-18 07:20 | 23.69430 | 114.36673 | 20604 ft | 466 kts | 40° |
| 2026-04-18 07:20 | 23.71918 | 114.38914 | 20605 ft | 463 kts | 34° |
| 2026-04-18 07:20 | 23.74508 | 114.40986 | 20601 ft | 462 kts | 32° |
| 2026-04-18 07:20 | 23.77122 | 114.43033 | 20600 ft | 462 kts | 33° |
| 2026-04-18 07:21 | 23.79718 | 114.45107 | 20599 ft | 462 kts | 33° |
| 2026-04-18 07:21 | 23.82303 | 114.47195 | 20600 ft | 462 kts | 33° |
| 2026-04-18 07:21 | 23.84880 | 114.49293 | 20599 ft | 463 kts | 33° |
| 2026-04-18 07:21 | 23.87460 | 114.51403 | 20598 ft | 463 kts | 33° |
| 2026-04-18 07:22 | 23.90038 | 114.53513 | 20598 ft | 463 kts | 34° |
| 2026-04-18 07:22 | 23.92615 | 114.55623 | 20597 ft | 463 kts | 33° |
| 2026-04-18 07:22 | 23.95194 | 114.57724 | 20597 ft | 463 kts | 34° |
| 2026-04-18 07:22 | 23.97773 | 114.59834 | 20597 ft | 463 kts | 34° |
| 2026-04-18 07:23 | 24.00349 | 114.61946 | 20596 ft | 463 kts | 34° |
| 2026-04-18 07:23 | 24.02931 | 114.64065 | 20596 ft | 464 kts | 33° |
| 2026-04-18 07:23 | 24.05512 | 114.66174 | 20596 ft | 464 kts | 33° |
| 2026-04-18 07:23 | 24.08100 | 114.68299 | 20595 ft | 464 kts | 33° |
| 2026-04-18 07:24 | 24.10679 | 114.70422 | 20595 ft | 464 kts | 33° |
| 2026-04-18 07:24 | 24.13263 | 114.72554 | 20594 ft | 465 kts | 33° |
| 2026-04-18 07:24 | 24.15846 | 114.74684 | 20594 ft | 465 kts | 33° |
| 2026-04-18 07:24 | 24.18429 | 114.76817 | 20594 ft | 465 kts | 33° |
| 2026-04-18 07:25 | 24.21010 | 114.78948 | 20594 ft | 465 kts | 33° |
| 2026-04-18 07:25 | 24.23565 | 114.81129 | 20588 ft | 467 kts | 38° |
| 2026-04-18 07:25 | 24.25722 | 114.83815 | 20590 ft | 474 kts | 53° |
| 2026-04-18 07:25 | 24.27217 | 114.87051 | 20592 ft | 479 kts | 68° |
| 2026-04-18 07:26 | 24.27945 | 114.90620 | 20594 ft | 482 kts | 83° |
| 2026-04-18 07:26 | 24.27948 | 114.94297 | 20595 ft | 484 kts | 94° |
| 2026-04-18 07:26 | 24.27509 | 114.97960 | 20593 ft | 485 kts | 98° |
| 2026-04-18 07:26 | 24.27029 | 115.01616 | 20591 ft | 485 kts | 97° |
| 2026-04-18 07:27 | 24.26623 | 115.05280 | 20591 ft | 485 kts | 96° |
| 2026-04-18 07:27 | 24.26276 | 115.08955 | 20590 ft | 484 kts | 95° |
| 2026-04-18 07:27 | 24.25975 | 115.12633 | 20589 ft | 486 kts | 94° |
| 2026-04-18 07:27 | 24.25666 | 115.16315 | 20589 ft | 485 kts | 95° |
| 2026-04-18 07:28 | 24.25348 | 115.19995 | 20589 ft | 485 kts | 95° |
| 2026-04-18 07:28 | 24.25026 | 115.23673 | 20589 ft | 485 kts | 95° |
| 2026-04-18 07:28 | 24.24701 | 115.27347 | 20588 ft | 485 kts | 95° |
| 2026-04-18 07:28 | 24.24376 | 115.31017 | 20588 ft | 485 kts | 95° |
| 2026-04-18 07:29 | 24.24050 | 115.34690 | 20587 ft | 485 kts | 95° |
| 2026-04-18 07:29 | 24.23723 | 115.38367 | 20586 ft | 485 kts | 95° |
| 2026-04-18 07:29 | 24.23397 | 115.42047 | 20586 ft | 485 kts | 95° |
| 2026-04-18 07:29 | 24.23076 | 115.45669 | 20586 ft | 485 kts | 95° |
| 2026-04-18 07:30 | 24.22757 | 115.49345 | 20586 ft | 484 kts | 95° |
| 2026-04-18 07:30 | 24.22429 | 115.53010 | 20587 ft | 484 kts | 95° |
| 2026-04-18 07:30 | 24.22098 | 115.56677 | 20585 ft | 484 kts | 95° |
| 2026-04-18 07:30 | 24.21767 | 115.60342 | 20585 ft | 484 kts | 95° |
| 2026-04-18 07:31 | 24.21433 | 115.64008 | 20584 ft | 484 kts | 95° |
| 2026-04-18 07:31 | 24.21100 | 115.67679 | 20584 ft | 484 kts | 95° |
| 2026-04-18 07:31 | 24.20781 | 115.71349 | 20583 ft | 484 kts | 95° |
| 2026-04-18 07:31 | 24.20453 | 115.75014 | 20583 ft | 484 kts | 95° |
| 2026-04-18 07:32 | 24.20118 | 115.78672 | 20583 ft | 483 kts | 95° |
| 2026-04-18 07:32 | 24.19780 | 115.82338 | 20582 ft | 483 kts | 95° |
| 2026-04-18 07:32 | 24.19442 | 115.85989 | 20582 ft | 483 kts | 95° |
| 2026-04-18 07:32 | 24.19102 | 115.89647 | 20582 ft | 483 kts | 95° |
| 2026-04-18 07:33 | 24.18762 | 115.93308 | 20582 ft | 483 kts | 95° |
| 2026-04-18 07:33 | 24.18422 | 115.96961 | 20581 ft | 483 kts | 95° |
| 2026-04-18 07:33 | 24.18082 | 116.00614 | 20581 ft | 483 kts | 95° |
| 2026-04-18 07:33 | 24.17739 | 116.04272 | 20581 ft | 483 kts | 95° |
| 2026-04-18 07:34 | 24.17428 | 116.07929 | 20581 ft | 483 kts | 95° |
| 2026-04-18 07:34 | 24.17147 | 116.11595 | 20580 ft | 482 kts | 92° |
| 2026-04-18 07:34 | 24.17013 | 116.15263 | 20582 ft | 483 kts | 91° |
| 2026-04-18 07:34 | 24.16934 | 116.18935 | 20580 ft | 482 kts | 90° |
| 2026-04-18 07:35 | 24.16823 | 116.22598 | 20580 ft | 482 kts | 91° |
| 2026-04-18 07:35 | 24.16683 | 116.26275 | 20578 ft | 483 kts | 91° |
| 2026-04-18 07:35 | 24.16544 | 116.29943 | 20579 ft | 483 kts | 92° |
| 2026-04-18 07:35 | 24.16395 | 116.33618 | 20579 ft | 484 kts | 92° |
| 2026-04-18 07:36 | 24.16250 | 116.37295 | 20579 ft | 483 kts | 91° |
| 2026-04-18 07:36 | 24.16102 | 116.40981 | 20578 ft | 483 kts | 92° |
| 2026-04-18 07:36 | 24.15958 | 116.44654 | 20579 ft | 483 kts | 92° |
| 2026-04-18 07:36 | 24.15810 | 116.48330 | 20579 ft | 483 kts | 91° |
| 2026-04-18 07:37 | 24.15669 | 116.52005 | 20578 ft | 483 kts | 91° |
| 2026-04-18 07:37 | 24.15541 | 116.55628 | 20579 ft | 483 kts | 91° |
| 2026-04-18 07:37 | 24.15397 | 116.59305 | 20579 ft | 483 kts | 92° |
| 2026-04-18 07:37 | 24.15249 | 116.62981 | 20578 ft | 484 kts | 92° |
| 2026-04-18 07:38 | 24.15097 | 116.66667 | 20578 ft | 484 kts | 92° |
| 2026-04-18 07:38 | 24.14944 | 116.70351 | 20578 ft | 484 kts | 92° |
| 2026-04-18 07:38 | 24.14789 | 116.74030 | 20578 ft | 484 kts | 92° |
| 2026-04-18 07:38 | 24.14632 | 116.77722 | 20577 ft | 485 kts | 92° |
| 2026-04-18 07:39 | 24.14478 | 116.81403 | 20577 ft | 485 kts | 92° |
| 2026-04-18 07:39 | 24.14325 | 116.85093 | 20578 ft | 484 kts | 92° |
| 2026-04-18 07:39 | 24.14188 | 116.88774 | 20578 ft | 484 kts | 91° |
| 2026-04-18 07:39 | 24.14159 | 116.92455 | 20579 ft | 484 kts | 89° |
| 2026-04-18 07:40 | 24.14171 | 116.96143 | 20579 ft | 484 kts | 89° |
| 2026-04-18 07:40 | 24.14167 | 116.99830 | 20578 ft | 484 kts | 89° |
| 2026-04-18 07:40 | 24.14151 | 117.03521 | 20578 ft | 484 kts | 90° |
| 2026-04-18 07:40 | 24.14129 | 117.07211 | 20579 ft | 484 kts | 90° |
| 2026-04-18 07:41 | 24.14104 | 117.10893 | 20579 ft | 484 kts | 90° |
| 2026-04-18 07:41 | 24.14077 | 117.14580 | 20578 ft | 484 kts | 90° |
| 2026-04-18 07:41 | 24.14075 | 117.17024 | 20579 ft | 485 kts | 89° |
| 2026-04-18 07:41 | 24.14061 | 117.21926 | 20577 ft | 474 kts | 90° |
| 2026-04-18 07:42 | 24.14045 | 117.24297 | 20577 ft | 465 kts | 90° |
| 2026-04-18 07:42 | 24.14017 | 117.27804 | 20578 ft | 458 kts | 90° |
| 2026-04-18 07:42 | 24.13986 | 117.31269 | 20578 ft | 453 kts | 90° |
| 2026-04-18 07:42 | 24.13943 | 117.35876 | 20435 ft | 452 kts | 90° |
| 2026-04-18 07:43 | 24.13921 | 117.38144 | 20227 ft | 447 kts | 90° |
| 2026-04-18 07:43 | 24.13889 | 117.41516 | 19827 ft | 440 kts | 90° |
| 2026-04-18 07:43 | 24.13862 | 117.44858 | 19275 ft | 439 kts | 89° |
| 2026-04-18 07:43 | 24.14208 | 117.48152 | 18730 ft | 434 kts | 74° |
| 2026-04-18 07:44 | 24.15282 | 117.51198 | 18181 ft | 427 kts | 59° |
| 2026-04-18 07:44 | 24.16910 | 117.53888 | 17588 ft | 422 kts | 50° |
| 2026-04-18 07:44 | 24.18805 | 117.56327 | 17041 ft | 418 kts | 44° |
| 2026-04-18 07:44 | 24.20801 | 117.58625 | 16502 ft | 415 kts | 43° |
| 2026-04-18 07:45 | 24.22790 | 117.60904 | 15967 ft | 413 kts | 44° |
| 2026-04-18 07:45 | 24.24740 | 117.63197 | 15437 ft | 411 kts | 44° |
| 2026-04-18 07:45 | 24.26669 | 117.65495 | 14908 ft | 408 kts | 44° |
| 2026-04-18 07:45 | 24.28581 | 117.67785 | 14382 ft | 407 kts | 45° |
| 2026-04-18 07:46 | 24.30480 | 117.70071 | 13857 ft | 405 kts | 45° |
| 2026-04-18 07:46 | 24.32376 | 117.72346 | 13335 ft | 403 kts | 45° |
| 2026-04-18 07:46 | 24.34259 | 117.74606 | 12812 ft | 401 kts | 45° |
| 2026-04-18 07:46 | 24.36135 | 117.76869 | 12237 ft | 401 kts | 46° |
| 2026-04-18 07:47 | 24.37742 | 117.79369 | 11672 ft | 403 kts | 62° |
| 2026-04-18 07:47 | 24.38626 | 117.82265 | 11185 ft | 401 kts | 79° |
| 2026-04-18 07:47 | 24.38725 | 117.85319 | 10496 ft | 402 kts | 97° |
| 2026-04-18 07:47 | 24.38093 | 117.88203 | 10169 ft | 374 kts | 110° |
| 2026-04-18 07:48 | 24.37199 | 117.90792 | 9911 ft | 354 kts | 111° |
| 2026-04-18 07:48 | 24.36452 | 117.93327 | 9659 ft | 344 kts | 108° |
| 2026-04-18 07:48 | 24.35873 | 117.95830 | 9396 ft | 335 kts | 98° |
| 2026-04-18 07:48 | 24.36047 | 117.98322 | 9139 ft | 324 kts | 73° |
| 2026-04-18 07:49 | 24.36891 | 118.00534 | 9084 ft | 304 kts | 61° |
| 2026-04-18 07:49 | 24.37965 | 118.02435 | 9076 ft | 288 kts | 54° |
| 2026-04-18 07:49 | 24.39130 | 118.04183 | 9077 ft | 288 kts | 51° |
| 2026-04-18 07:49 | 24.40371 | 118.05924 | 9078 ft | 291 kts | 50° |
| 2026-04-18 07:50 | 24.41632 | 118.07670 | 8948 ft | 294 kts | 50° |
| 2026-04-18 07:50 | 24.42910 | 118.09436 | 8593 ft | 296 kts | 51° |
| 2026-04-18 07:50 | 24.44183 | 118.11213 | 8274 ft | 297 kts | 51° |
| 2026-04-18 07:50 | 24.45457 | 118.12996 | 7953 ft | 297 kts | 51° |
| 2026-04-18 07:51 | 24.46726 | 118.14780 | 7629 ft | 296 kts | 51° |
| 2026-04-18 07:51 | 24.47994 | 118.16565 | 7310 ft | 295 kts | 51° |
| 2026-04-18 07:51 | 24.49224 | 118.18301 | 6984 ft | 282 kts | 51° |
| 2026-04-18 07:51 | 24.50409 | 118.19975 | 6682 ft | 276 kts | 51° |
| 2026-04-18 07:52 | 24.51587 | 118.21642 | 6373 ft | 276 kts | 51° |
| 2026-04-18 07:52 | 24.52761 | 118.23303 | 6066 ft | 275 kts | 52° |
| 2026-04-18 07:52 | 24.53935 | 118.24965 | 5761 ft | 275 kts | 52° |
| 2026-04-18 07:52 | 24.55104 | 118.26620 | 5457 ft | 274 kts | 52° |
| 2026-04-18 07:53 | 24.56273 | 118.28274 | 5151 ft | 273 kts | 52° |
| 2026-04-18 07:53 | 24.57436 | 118.29921 | 4846 ft | 272 kts | 52° |
| 2026-04-18 07:53 | 24.58589 | 118.31553 | 4662 ft | 266 kts | 52° |
| 2026-04-18 07:53 | 24.59703 | 118.33129 | 4591 ft | 256 kts | 52° |
| 2026-04-18 07:54 | 24.60747 | 118.34660 | 4522 ft | 246 kts | 57° |
| 2026-04-18 07:54 | 24.61338 | 118.36375 | 4346 ft | 240 kts | 80° |
| 2026-04-18 07:54 | 24.61411 | 118.38195 | 4096 ft | 238 kts | 91° |
| 2026-04-18 07:54 | 24.61320 | 118.40000 | 3832 ft | 236 kts | 93° |
| 2026-04-18 07:55 | 24.61244 | 118.41801 | 3552 ft | 235 kts | 91° |
| 2026-04-18 07:55 | 24.61197 | 118.43576 | 3410 ft | 228 kts | 91° |
| 2026-04-18 07:55 | 24.61157 | 118.45284 | 3258 ft | 221 kts | 91° |
| 2026-04-18 07:55 | 24.61354 | 118.46926 | 3013 ft | 218 kts | 67° |
| 2026-04-18 07:56 | 24.62364 | 118.48101 | 2991 ft | 212 kts | 32° |
| 2026-04-18 07:56 | 24.63642 | 118.48819 | 3089 ft | 207 kts | 25° |
| 2026-04-18 07:56 | 24.64970 | 118.49488 | 3067 ft | 208 kts | 26° |
| 2026-04-18 07:56 | 24.66245 | 118.50239 | 2920 ft | 213 kts | 30° |
| 2026-04-18 07:57 | 24.67512 | 118.51059 | 2646 ft | 209 kts | 31° |
| 2026-04-18 07:57 | 24.68743 | 118.51855 | 2373 ft | 202 kts | 31° |
| 2026-04-18 07:57 | 24.69927 | 118.52618 | 2107 ft | 192 kts | 31° |
| 2026-04-18 07:57 | 24.71050 | 118.53342 | 1841 ft | 182 kts | 31° |
| 2026-04-18 07:58 | 24.73100 | 118.54663 | 1384 ft | 161 kts | 30° |
| 2026-04-18 07:58 | 24.74050 | 118.55275 | 1170 ft | 156 kts | 30° |
| 2026-04-18 07:58 | 24.74981 | 118.55868 | 967 ft | 152 kts | 29° |
| 2026-04-18 07:59 | 24.75901 | 118.56429 | 772 ft | 151 kts | 29° |
| 2026-04-18 07:59 | 24.76813 | 118.57014 | 533 ft | 153 kts | 31° |
| 2026-04-18 07:59 | 24.77718 | 118.57627 | 307 ft | 153 kts | 30° |
| 2026-04-18 07:59 | 24.78638 | 118.58220 | 91 ft | 152 kts | 30° |
| 2026-04-18 08:00 | 24.79516 | 118.58786 | 32 ft | 136 kts | 31° |
| 2026-04-18 08:00 | 24.80419 | 118.59375 | 307 ft | 164 kts | 30° |
| 2026-04-18 08:00 | 24.81441 | 118.60039 | 863 ft | 178 kts | 30° |
| 2026-04-18 08:00 | 24.82590 | 118.60764 | 1323 ft | 200 kts | 29° |
| 2026-04-18 08:01 | 24.83842 | 118.61512 | 1767 ft | 210 kts | 28° |
| 2026-04-18 08:01 | 24.85164 | 118.62265 | 2219 ft | 216 kts | 27° |
| 2026-04-18 08:01 | 24.86478 | 118.63042 | 2495 ft | 215 kts | 30° |
| 2026-04-18 08:01 | 24.87759 | 118.63917 | 2695 ft | 218 kts | 32° |
| 2026-04-18 08:02 | 24.89041 | 118.64814 | 2895 ft | 219 kts | 33° |
| 2026-04-18 08:02 | 24.90329 | 118.65719 | 3096 ft | 220 kts | 33° |
| 2026-04-18 08:02 | 24.91648 | 118.66566 | 3344 ft | 221 kts | 23° |
| 2026-04-18 08:02 | 24.93166 | 118.66773 | 3603 ft | 223 kts | 353° |
| 2026-04-18 08:03 | 24.94596 | 118.66123 | 3872 ft | 227 kts | 324° |
| 2026-04-18 08:03 | 24.95535 | 118.64745 | 3894 ft | 230 kts | 289° |
| 2026-04-18 08:03 | 24.95546 | 118.63015 | 3925 ft | 228 kts | 256° |
| 2026-04-18 08:03 | 24.94893 | 118.61431 | 3954 ft | 228 kts | 238° |
| 2026-04-18 08:04 | 24.93948 | 118.60025 | 3947 ft | 228 kts | 231° |
| 2026-04-18 08:04 | 24.92907 | 118.58704 | 3930 ft | 228 kts | 228° |
| 2026-04-18 08:04 | 24.91871 | 118.57391 | 3920 ft | 228 kts | 230° |
| 2026-04-18 08:04 | 24.90849 | 118.56053 | 3911 ft | 228 kts | 230° |
| 2026-04-18 08:05 | 24.89839 | 118.54710 | 3908 ft | 228 kts | 231° |
| 2026-04-18 08:05 | 24.88833 | 118.53361 | 3904 ft | 228 kts | 231° |
| 2026-04-18 08:05 | 24.87841 | 118.52031 | 3903 ft | 228 kts | 230° |
| 2026-04-18 08:05 | 24.86704 | 118.50824 | 3895 ft | 228 kts | 218° |
| 2026-04-18 08:06 | 24.85392 | 118.49855 | 3904 ft | 228 kts | 211° |
| 2026-04-18 08:06 | 24.83984 | 118.48986 | 3930 ft | 242 kts | 208° |
| 2026-04-18 08:06 | 24.82448 | 118.48090 | 3959 ft | 254 kts | 208° |
| 2026-04-18 08:06 | 24.80871 | 118.47160 | 3958 ft | 260 kts | 208° |
| 2026-04-18 08:07 | 24.79275 | 118.46209 | 3951 ft | 261 kts | 208° |
| 2026-04-18 08:07 | 24.77683 | 118.45257 | 3944 ft | 261 kts | 208° |
| 2026-04-18 08:07 | 24.76083 | 118.44297 | 3797 ft | 264 kts | 208° |
| 2026-04-18 08:07 | 24.74448 | 118.43316 | 3618 ft | 268 kts | 208° |
| 2026-04-18 08:08 | 24.72833 | 118.42353 | 3528 ft | 259 kts | 207° |
| 2026-04-18 08:08 | 24.71158 | 118.41812 | 3405 ft | 245 kts | 180° |
| 2026-04-18 08:08 | 24.69624 | 118.42326 | 3185 ft | 227 kts | 144° |
| 2026-04-18 08:08 | 24.68676 | 118.43663 | 3108 ft | 222 kts | 116° |
| 2026-04-18 08:09 | 24.68078 | 118.45214 | 3119 ft | 219 kts | 111° |
| 2026-04-18 08:09 | 24.67424 | 118.46728 | 3029 ft | 222 kts | 116° |
| 2026-04-18 08:09 | 24.66707 | 118.48246 | 2877 ft | 222 kts | 112° |
| 2026-04-18 08:09 | 24.66544 | 118.49834 | 2750 ft | 205 kts | 76° |
| 2026-04-18 08:10 | 24.67315 | 118.51057 | 2655 ft | 195 kts | 39° |
| 2026-04-18 08:10 | 24.68465 | 118.51773 | 2446 ft | 187 kts | 27° |
| 2026-04-18 08:10 | 24.69597 | 118.52428 | 2182 ft | 178 kts | 30° |
| 2026-04-18 08:10 | 24.70636 | 118.53081 | 1929 ft | 166 kts | 30° |
| 2026-04-18 08:11 | 24.71614 | 118.53707 | 1699 ft | 159 kts | 31° |
| 2026-04-18 08:11 | 24.72556 | 118.54313 | 1491 ft | 155 kts | 30° |
| 2026-04-18 08:11 | 24.73461 | 118.54896 | 1290 ft | 151 kts | 30° |
| 2026-04-18 08:11 | 24.74379 | 118.55485 | 1096 ft | 151 kts | 30° |
| 2026-04-18 08:12 | 24.75279 | 118.56052 | 892 ft | 152 kts | 30° |
| 2026-04-18 08:12 | 24.76192 | 118.56638 | 646 ft | 152 kts | 31° |
| 2026-04-18 08:12 | 24.77093 | 118.57233 | 413 ft | 152 kts | 30° |
| 2026-04-18 08:12 | 24.78003 | 118.57803 | 211 ft | 150 kts | 30° |
| 2026-04-18 08:13 | 24.78887 | 118.58378 | 47 ft | 145 kts | 30° |
| 2026-04-18 08:13 | 24.79667 | 118.58883 | 29 ft | 101 kts | 30° |
| 2026-04-18 08:13 | 24.80049 | 118.59128 | 29 ft | 36 kts | 30° |
| 2026-04-18 08:13 | 24.80261 | 118.59264 | 29 ft | 34 kts | 30° |
| 2026-04-18 08:14 | 24.80370 | 118.59264 | 29 ft | 9 kts | 300° |
| 2026-04-18 08:14 | 24.80393 | 118.59222 | 29 ft | 6 kts | 301° |
| 2026-04-18 08:14 | 24.80413 | 118.59183 | 29 ft | 6 kts | 299° |
| 2026-04-18 08:14 | 24.80425 | 118.59160 | 29 ft | 3 kts | 300° |
| 2026-04-18 08:15 | 24.80443 | 118.59124 | 29 ft | 9 kts | 294° |
| 2026-04-18 08:15 | 24.80425 | 118.59062 | 29 ft | 10 kts | 213° |
| 2026-04-18 08:15 | 24.80413 | 118.58997 | 29 ft | 10 kts | 300° |
| 2026-04-18 08:15 | 24.80427 | 118.58974 | 29 ft | 0 kts | 301° |